Mb-1210 — UEQC — position and weather

sailwx.info

Track history (hours):
 
Tides and Currents Weather Stations Pressure Air Temp Water Temp Dewpoint Dewpoint Depression Visibility Wind Speed Wind Dir Waves Ship Positions

Mb-1210

Last reported at 2015-Jun-24 03:17 UTC. Time now 2015-Jul-04 13:40 UTC.
Position N 59°48' E 030°38'.
Warning: this ship's position is 10 days out of date.

Length 50 m; draft 2.4 m.

Type: Towing. MMSI: 273421120.

Date/timePositionNaut miles runAvg speedWind from/ knotsBaromVisibWave heightAir tempDewpointWater temp
2015-Jun-24 03:17N 59°48' E 030°38'4 4.1
2015-Jun-24 02:24N 59°50' E 030°33'4 4.6
2015-Jun-24 01:33N 59°53' E 030°27'5 4.7
2015-Jun-24 00:33N 59°57' E 030°24'0 0.0
2015-Jun-23 23:33N 59°57' E 030°24'4 4.3
2015-Jun-23 22:33N 59°55' E 030°16'3 3.4
2015-Jun-23 21:33N 59°52' E 030°13'0 0.0
2015-Jun-23 20:33N 59°52' E 030°13'0 0.0
2015-Jun-23 19:33N 59°52' E 030°13'0 0.0
2015-Jun-23 19:05N 59°52' E 030°13'  
Track history (hours):
 
Tides and Currents Weather Stations Pressure Air Temp Water Temp Dewpoint Dewpoint Depression Visibility Wind Speed Wind Dir Waves Ship Positions

Mb-1210

Last reported at 2015-Jun-24 03:17 UTC. Time now 2015-Jul-04 13:40 UTC.
Position N 59°48' E 030°38'.
Warning: this ship's position is 10 days out of date.

Length 50 m; draft 2.4 m.

Type: Towing. MMSI: 273421120.

Date/timePositionNaut miles runAvg speedWind from/ knotsBaromVisibWave heightAir tempDewpointWater temp
2015-Jun-24 03:17N 59°48' E 030°38'4 4.1
2015-Jun-24 02:24N 59°50' E 030°33'4 4.6
2015-Jun-24 01:33N 59°53' E 030°27'5 4.7
2015-Jun-24 00:33N 59°57' E 030°24'0 0.0
2015-Jun-23 23:33N 59°57' E 030°24'4 4.3
2015-Jun-23 22:33N 59°55' E 030°16'3 3.4
2015-Jun-23 21:33N 59°52' E 030°13'0 0.0
2015-Jun-23 20:33N 59°52' E 030°13'0 0.0
2015-Jun-23 19:33N 59°52' E 030°13'0 0.0
2015-Jun-23 19:05N 59°52' E 030°13'  

Dump ship's entire track history